sensor_id;sensor_type;location;lat;lon;timestamp;P1;durP1;ratioP1;P2;durP2;ratioP2
20454;SDS011;10386;54.314;10.022;2023-02-18T00:00:27;38.53;;;5.30;;
20454;SDS011;10386;54.314;10.022;2023-02-18T00:02:54;33.33;;;5.23;;
20454;SDS011;10386;54.314;10.022;2023-02-18T00:05:25;26.40;;;4.43;;
20454;SDS011;10386;54.314;10.022;2023-02-18T00:07:53;23.17;;;5.17;;
20454;SDS011;10386;54.314;10.022;2023-02-18T00:10:20;29.57;;;4.37;;
20454;SDS011;10386;54.314;10.022;2023-02-18T00:12:47;25.97;;;4.77;;
20454;SDS011;10386;54.314;10.022;2023-02-18T00:15:13;29.63;;;4.90;;
20454;SDS011;10386;54.314;10.022;2023-02-18T00:17:40;22.20;;;4.40;;
20454;SDS011;10386;54.314;10.022;2023-02-18T00:20:07;26.47;;;4.53;;
20454;SDS011;10386;54.314;10.022;2023-02-18T00:22:34;24.30;;;4.67;;
20454;SDS011;10386;54.314;10.022;2023-02-18T00:25:01;25.40;;;5.20;;
20454;SDS011;10386;54.314;10.022;2023-02-18T00:27:28;39.95;;;6.13;;
20454;SDS011;10386;54.314;10.022;2023-02-18T00:29:54;36.00;;;5.87;;
20454;SDS011;10386;54.314;10.022;2023-02-18T00:32:21;30.30;;;5.50;;
20454;SDS011;10386;54.314;10.022;2023-02-18T00:34:48;28.30;;;6.05;;
20454;SDS011;10386;54.314;10.022;2023-02-18T00:37:15;32.20;;;5.30;;
20454;SDS011;10386;54.314;10.022;2023-02-18T00:39:41;30.60;;;4.97;;
20454;SDS011;10386;54.314;10.022;2023-02-18T00:42:09;34.08;;;5.50;;
20454;SDS011;10386;54.314;10.022;2023-02-18T00:44:36;35.33;;;5.27;;
20454;SDS011;10386;54.314;10.022;2023-02-18T00:47:03;30.20;;;5.27;;
20454;SDS011;10386;54.314;10.022;2023-02-18T00:49:29;28.37;;;4.93;;
20454;SDS011;10386;54.314;10.022;2023-02-18T00:51:56;38.27;;;6.17;;
20454;SDS011;10386;54.314;10.022;2023-02-18T00:54:23;27.70;;;4.77;;
20454;SDS011;10386;54.314;10.022;2023-02-18T00:56:50;32.93;;;4.83;;
20454;SDS011;10386;54.314;10.022;2023-02-18T00:59:17;32.43;;;4.57;;
20454;SDS011;10386;54.314;10.022;2023-02-18T01:01:43;22.07;;;4.50;;
20454;SDS011;10386;54.314;10.022;2023-02-18T01:04:10;34.33;;;4.77;;
20454;SDS011;10386;54.314;10.022;2023-02-18T01:06:37;28.40;;;4.80;;
20454;SDS011;10386;54.314;10.022;2023-02-18T01:09:04;31.60;;;5.37;;
20454;SDS011;10386;54.314;10.022;2023-02-18T01:11:31;34.35;;;5.85;;
20454;SDS011;10386;54.314;10.022;2023-02-18T01:13:58;27.63;;;4.03;;
20454;SDS011;10386;54.314;10.022;2023-02-18T01:16:25;24.50;;;4.63;;
20454;SDS011;10386;54.314;10.022;2023-02-18T01:18:52;22.10;;;4.10;;
20454;SDS011;10386;54.314;10.022;2023-02-18T01:21:19;21.17;;;4.53;;
20454;SDS011;10386;54.314;10.022;2023-02-18T01:23:46;28.83;;;4.30;;
20454;SDS011;10386;54.314;10.022;2023-02-18T01:26:13;26.40;;;4.20;;
20454;SDS011;10386;54.314;10.022;2023-02-18T01:28:40;26.80;;;4.27;;
20454;SDS011;10386;54.314;10.022;2023-02-18T01:31:08;22.10;;;5.07;;
20454;SDS011;10386;54.314;10.022;2023-02-18T01:33:38;28.13;;;4.47;;
20454;SDS011;10386;54.314;10.022;2023-02-18T01:36:05;32.17;;;6.03;;
20454;SDS011;10386;54.314;10.022;2023-02-18T01:38:32;21.43;;;4.60;;
20454;SDS011;10386;54.314;10.022;2023-02-18T01:40:59;23.53;;;4.33;;
20454;SDS011;10386;54.314;10.022;2023-02-18T01:43:26;28.53;;;4.60;;
20454;SDS011;10386;54.314;10.022;2023-02-18T01:48:31;30.67;;;5.17;;
20454;SDS011;10386;54.314;10.022;2023-02-18T01:51:10;27.07;;;4.97;;
20454;SDS011;10386;54.314;10.022;2023-02-18T01:53:46;30.43;;;4.47;;
20454;SDS011;10386;54.314;10.022;2023-02-18T01:56:19;23.23;;;4.00;;
20454;SDS011;10386;54.314;10.022;2023-02-18T01:58:53;26.70;;;3.87;;
20454;SDS011;10386;54.314;10.022;2023-02-18T02:01:22;28.67;;;4.00;;
20454;SDS011;10386;54.314;10.022;2023-02-18T02:03:50;29.03;;;4.10;;
20454;SDS011;10386;54.314;10.022;2023-02-18T02:06:18;24.07;;;3.90;;
20454;SDS011;10386;54.314;10.022;2023-02-18T02:08:48;20.33;;;3.73;;
20454;SDS011;10386;54.314;10.022;2023-02-18T02:34:57;25.30;;;3.90;;
20454;SDS011;10386;54.314;10.022;2023-02-18T02:42:51;30.20;;;3.57;;
20454;SDS011;10386;54.314;10.022;2023-02-18T02:53:43;28.97;;;4.43;;
20454;SDS011;10386;54.314;10.022;2023-02-18T02:56:14;30.43;;;4.10;;
20454;SDS011;10386;54.314;10.022;2023-02-18T02:58:44;28.93;;;4.30;;
20454;SDS011;10386;54.314;10.022;2023-02-18T03:01:21;25.10;;;3.80;;
20454;SDS011;10386;54.314;10.022;2023-02-18T03:09:36;25.70;;;3.83;;
20454;SDS011;10386;54.314;10.022;2023-02-18T03:17:37;34.80;;;4.40;;
20454;SDS011;10386;54.314;10.022;2023-02-18T03:20:19;26.33;;;4.57;;
20454;SDS011;10386;54.314;10.022;2023-02-18T03:22:52;27.93;;;3.97;;
20454;SDS011;10386;54.314;10.022;2023-02-18T03:25:21;28.63;;;4.97;;
20454;SDS011;10386;54.314;10.022;2023-02-18T03:27:51;29.97;;;3.77;;
20454;SDS011;10386;54.314;10.022;2023-02-18T03:30:22;27.97;;;4.30;;
20454;SDS011;10386;54.314;10.022;2023-02-18T03:32:54;31.30;;;5.23;;
20454;SDS011;10386;54.314;10.022;2023-02-18T03:35:25;28.90;;;4.20;;
20454;SDS011;10386;54.314;10.022;2023-02-18T03:38:05;31.03;;;4.97;;
20454;SDS011;10386;54.314;10.022;2023-02-18T03:40:37;24.13;;;4.93;;
20454;SDS011;10386;54.314;10.022;2023-02-18T03:43:04;24.00;;;5.00;;
20454;SDS011;10386;54.314;10.022;2023-02-18T03:45:31;26.23;;;4.70;;
20454;SDS011;10386;54.314;10.022;2023-02-18T03:47:57;28.40;;;4.67;;
20454;SDS011;10386;54.314;10.022;2023-02-18T03:50:24;32.47;;;4.63;;
20454;SDS011;10386;54.314;10.022;2023-02-18T03:52:51;31.70;;;5.07;;
20454;SDS011;10386;54.314;10.022;2023-02-18T03:55:18;32.27;;;5.33;;
20454;SDS011;10386;54.314;10.022;2023-02-18T03:57:44;25.07;;;4.90;;
20454;SDS011;10386;54.314;10.022;2023-02-18T04:00:11;30.47;;;4.07;;
20454;SDS011;10386;54.314;10.022;2023-02-18T04:02:39;18.80;;;4.57;;
20454;SDS011;10386;54.314;10.022;2023-02-18T04:05:06;32.20;;;4.50;;
20454;SDS011;10386;54.314;10.022;2023-02-18T04:07:34;32.77;;;4.00;;
20454;SDS011;10386;54.314;10.022;2023-02-18T04:10:01;26.73;;;4.20;;
20454;SDS011;10386;54.314;10.022;2023-02-18T04:12:27;24.63;;;3.47;;
20454;SDS011;10386;54.314;10.022;2023-02-18T04:14:54;26.83;;;4.40;;
20454;SDS011;10386;54.314;10.022;2023-02-18T04:17:21;25.83;;;4.10;;
20454;SDS011;10386;54.314;10.022;2023-02-18T04:19:48;28.30;;;3.80;;
20454;SDS011;10386;54.314;10.022;2023-02-18T04:22:14;23.63;;;4.07;;
20454;SDS011;10386;54.314;10.022;2023-02-18T04:24:41;34.53;;;4.47;;
20454;SDS011;10386;54.314;10.022;2023-02-18T04:27:08;25.70;;;4.03;;
20454;SDS011;10386;54.314;10.022;2023-02-18T04:29:35;21.33;;;3.73;;
20454;SDS011;10386;54.314;10.022;2023-02-18T04:32:01;24.03;;;4.23;;
20454;SDS011;10386;54.314;10.022;2023-02-18T04:34:28;23.83;;;4.93;;
20454;SDS011;10386;54.314;10.022;2023-02-18T04:36:55;29.53;;;3.93;;
20454;SDS011;10386;54.314;10.022;2023-02-18T04:39:23;26.50;;;3.47;;
20454;SDS011;10386;54.314;10.022;2023-02-18T04:41:49;22.73;;;3.87;;
20454;SDS011;10386;54.314;10.022;2023-02-18T04:44:16;22.17;;;3.60;;
20454;SDS011;10386;54.314;10.022;2023-02-18T04:46:43;19.87;;;3.90;;
20454;SDS011;10386;54.314;10.022;2023-02-18T04:49:10;18.60;;;3.53;;
20454;SDS011;10386;54.314;10.022;2023-02-18T04:51:36;14.63;;;2.80;;
20454;SDS011;10386;54.314;10.022;2023-02-18T04:54:03;24.63;;;3.93;;
20454;SDS011;10386;54.314;10.022;2023-02-18T04:56:30;16.10;;;3.23;;
20454;SDS011;10386;54.314;10.022;2023-02-18T04:58:57;21.03;;;3.20;;
20454;SDS011;10386;54.314;10.022;2023-02-18T05:01:23;17.50;;;2.60;;
20454;SDS011;10386;54.314;10.022;2023-02-18T05:03:50;19.07;;;3.23;;
20454;SDS011;10386;54.314;10.022;2023-02-18T05:06:17;17.60;;;3.07;;
20454;SDS011;10386;54.314;10.022;2023-02-18T05:08:43;17.77;;;2.93;;
20454;SDS011;10386;54.314;10.022;2023-02-18T05:11:10;16.73;;;3.30;;
20454;SDS011;10386;54.314;10.022;2023-02-18T05:13:37;13.70;;;2.07;;
20454;SDS011;10386;54.314;10.022;2023-02-18T05:16:05;16.10;;;3.30;;
20454;SDS011;10386;54.314;10.022;2023-02-18T05:18:33;21.10;;;3.50;;
20454;SDS011;10386;54.314;10.022;2023-02-18T05:21:00;18.57;;;3.20;;
20454;SDS011;10386;54.314;10.022;2023-02-18T05:23:27;21.67;;;3.57;;
20454;SDS011;10386;54.314;10.022;2023-02-18T05:25:53;18.87;;;3.10;;
20454;SDS011;10386;54.314;10.022;2023-02-18T05:28:21;13.37;;;3.03;;
20454;SDS011;10386;54.314;10.022;2023-02-18T05:30:48;12.77;;;3.40;;
20454;SDS011;10386;54.314;10.022;2023-02-18T05:33:15;18.37;;;2.53;;
20454;SDS011;10386;54.314;10.022;2023-02-18T05:35:42;12.30;;;2.80;;
20454;SDS011;10386;54.314;10.022;2023-02-18T05:38:08;12.13;;;2.20;;
20454;SDS011;10386;54.314;10.022;2023-02-18T05:40:35;6.10;;;2.10;;
20454;SDS011;10386;54.314;10.022;2023-02-18T05:43:02;9.93;;;1.97;;
20454;SDS011;10386;54.314;10.022;2023-02-18T05:45:30;9.80;;;2.50;;
20454;SDS011;10386;54.314;10.022;2023-02-18T05:47:57;11.97;;;2.47;;
20454;SDS011;10386;54.314;10.022;2023-02-18T05:50:23;15.17;;;2.43;;
20454;SDS011;10386;54.314;10.022;2023-02-18T05:52:50;12.10;;;2.77;;
20454;SDS011;10386;54.314;10.022;2023-02-18T05:55:17;10.37;;;2.20;;
20454;SDS011;10386;54.314;10.022;2023-02-18T05:57:47;10.23;;;2.10;;
20454;SDS011;10386;54.314;10.022;2023-02-18T06:00:14;10.37;;;2.43;;
20454;SDS011;10386;54.314;10.022;2023-02-18T06:02:41;11.00;;;2.63;;
20454;SDS011;10386;54.314;10.022;2023-02-18T06:05:08;13.60;;;2.67;;
20454;SDS011;10386;54.314;10.022;2023-02-18T06:07:35;10.03;;;2.40;;
20454;SDS011;10386;54.314;10.022;2023-02-18T06:10:03;12.33;;;2.43;;
20454;SDS011;10386;54.314;10.022;2023-02-18T06:12:31;15.60;;;2.27;;
20454;SDS011;10386;54.314;10.022;2023-02-18T06:14:57;11.50;;;1.97;;
20454;SDS011;10386;54.314;10.022;2023-02-18T06:17:24;6.63;;;1.83;;
20454;SDS011;10386;54.314;10.022;2023-02-18T06:19:51;9.20;;;1.77;;
20454;SDS011;10386;54.314;10.022;2023-02-18T06:22:18;10.60;;;1.90;;
20454;SDS011;10386;54.314;10.022;2023-02-18T06:24:44;14.17;;;2.13;;
20454;SDS011;10386;54.314;10.022;2023-02-18T06:27:11;14.07;;;2.57;;
20454;SDS011;10386;54.314;10.022;2023-02-18T06:29:38;9.73;;;2.57;;
20454;SDS011;10386;54.314;10.022;2023-02-18T06:32:05;14.00;;;2.60;;
20454;SDS011;10386;54.314;10.022;2023-02-18T06:34:32;17.03;;;2.53;;
20454;SDS011;10386;54.314;10.022;2023-02-18T06:36:58;13.57;;;2.10;;
20454;SDS011;10386;54.314;10.022;2023-02-18T06:39:26;10.05;;;2.60;;
20454;SDS011;10386;54.314;10.022;2023-02-18T06:41:53;8.57;;;2.00;;
20454;SDS011;10386;54.314;10.022;2023-02-18T06:44:20;8.93;;;2.07;;
20454;SDS011;10386;54.314;10.022;2023-02-18T06:46:47;10.30;;;2.20;;
20454;SDS011;10386;54.314;10.022;2023-02-18T06:49:13;11.60;;;1.90;;
20454;SDS011;10386;54.314;10.022;2023-02-18T06:51:40;8.57;;;1.53;;
20454;SDS011;10386;54.314;10.022;2023-02-18T06:54:07;8.57;;;2.73;;
20454;SDS011;10386;54.314;10.022;2023-02-18T06:56:34;6.80;;;1.40;;
20454;SDS011;10386;54.314;10.022;2023-02-18T06:59:00;4.00;;;1.80;;
20454;SDS011;10386;54.314;10.022;2023-02-18T07:01:27;7.63;;;1.97;;
20454;SDS011;10386;54.314;10.022;2023-02-18T07:03:54;7.33;;;1.70;;
20454;SDS011;10386;54.314;10.022;2023-02-18T07:06:21;4.23;;;1.70;;
20454;SDS011;10386;54.314;10.022;2023-02-18T07:08:48;4.40;;;1.70;;
20454;SDS011;10386;54.314;10.022;2023-02-18T07:11:15;8.43;;;2.07;;
20454;SDS011;10386;54.314;10.022;2023-02-18T07:13:41;3.60;;;1.53;;
20454;SDS011;10386;54.314;10.022;2023-02-18T07:16:08;5.03;;;1.60;;
20454;SDS011;10386;54.314;10.022;2023-02-18T07:18:36;3.73;;;1.27;;
20454;SDS011;10386;54.314;10.022;2023-02-18T07:21:02;4.30;;;1.40;;
20454;SDS011;10386;54.314;10.022;2023-02-18T07:23:29;1.97;;;1.20;;
20454;SDS011;10386;54.314;10.022;2023-02-18T07:26:10;3.13;;;1.30;;
20454;SDS011;10386;54.314;10.022;2023-02-18T07:28:38;5.87;;;1.30;;
20454;SDS011;10386;54.314;10.022;2023-02-18T07:31:05;1.30;;;1.20;;
20454;SDS011;10386;54.314;10.022;2023-02-18T07:33:36;2.40;;;1.50;;
20454;SDS011;10386;54.314;10.022;2023-02-18T07:36:02;3.00;;;1.40;;
20454;SDS011;10386;54.314;10.022;2023-02-18T07:38:30;4.53;;;1.53;;
20454;SDS011;10386;54.314;10.022;2023-02-18T07:40:57;2.43;;;1.47;;
20454;SDS011;10386;54.314;10.022;2023-02-18T07:43:24;3.80;;;1.40;;
20454;SDS011;10386;54.314;10.022;2023-02-18T07:45:50;1.30;;;1.20;;
20454;SDS011;10386;54.314;10.022;2023-02-18T07:48:17;2.60;;;1.37;;
20454;SDS011;10386;54.314;10.022;2023-02-18T07:50:44;6.63;;;1.80;;
20454;SDS011;10386;54.314;10.022;2023-02-18T07:53:12;5.33;;;1.60;;
20454;SDS011;10386;54.314;10.022;2023-02-18T07:55:40;4.27;;;1.23;;
20454;SDS011;10386;54.314;10.022;2023-02-18T07:58:16;3.20;;;1.50;;
20454;SDS011;10386;54.314;10.022;2023-02-18T08:00:53;6.90;;;1.60;;
20454;SDS011;10386;54.314;10.022;2023-02-18T08:03:21;5.80;;;1.43;;
20454;SDS011;10386;54.314;10.022;2023-02-18T08:05:51;3.47;;;1.30;;
20454;SDS011;10386;54.314;10.022;2023-02-18T08:08:19;2.67;;;1.80;;
20454;SDS011;10386;54.314;10.022;2023-02-18T08:10:51;8.70;;;1.70;;
20454;SDS011;10386;54.314;10.022;2023-02-18T08:13:19;3.20;;;1.50;;
20454;SDS011;10386;54.314;10.022;2023-02-18T08:15:45;5.07;;;1.60;;
20454;SDS011;10386;54.314;10.022;2023-02-18T08:18:14;6.00;;;1.60;;
20454;SDS011;10386;54.314;10.022;2023-02-18T08:20:44;6.57;;;1.70;;
20454;SDS011;10386;54.314;10.022;2023-02-18T08:23:12;2.53;;;1.60;;
20454;SDS011;10386;54.314;10.022;2023-02-18T08:25:40;1.53;;;1.40;;
20454;SDS011;10386;54.314;10.022;2023-02-18T08:28:11;4.37;;;1.50;;
20454;SDS011;10386;54.314;10.022;2023-02-18T08:30:38;5.30;;;1.70;;
20454;SDS011;10386;54.314;10.022;2023-02-18T08:33:10;3.93;;;1.60;;
20454;SDS011;10386;54.314;10.022;2023-02-18T08:35:38;7.33;;;1.33;;
20454;SDS011;10386;54.314;10.022;2023-02-18T08:38:05;6.93;;;1.70;;
20454;SDS011;10386;54.314;10.022;2023-02-18T08:40:32;4.47;;;1.80;;
20454;SDS011;10386;54.314;10.022;2023-02-18T08:42:59;2.50;;;1.40;;
20454;SDS011;10386;54.314;10.022;2023-02-18T08:45:26;4.90;;;1.50;;
20454;SDS011;10386;54.314;10.022;2023-02-18T08:47:53;5.07;;;1.83;;
20454;SDS011;10386;54.314;10.022;2023-02-18T08:50:39;5.83;;;1.70;;
20454;SDS011;10386;54.314;10.022;2023-02-18T08:53:06;7.17;;;1.57;;
20454;SDS011;10386;54.314;10.022;2023-02-18T08:55:33;5.10;;;1.97;;
20454;SDS011;10386;54.314;10.022;2023-02-18T08:58:00;3.77;;;1.80;;
20454;SDS011;10386;54.314;10.022;2023-02-18T09:00:29;3.13;;;1.33;;
20454;SDS011;10386;54.314;10.022;2023-02-18T09:02:56;7.13;;;1.63;;
20454;SDS011;10386;54.314;10.022;2023-02-18T09:05:22;5.17;;;1.60;;
20454;SDS011;10386;54.314;10.022;2023-02-18T09:07:49;4.37;;;1.40;;
20454;SDS011;10386;54.314;10.022;2023-02-18T09:10:16;5.40;;;1.57;;
20454;SDS011;10386;54.314;10.022;2023-02-18T09:12:43;5.63;;;1.60;;
20454;SDS011;10386;54.314;10.022;2023-02-18T09:15:09;6.63;;;1.60;;
20454;SDS011;10386;54.314;10.022;2023-02-18T09:17:36;6.70;;;2.07;;
20454;SDS011;10386;54.314;10.022;2023-02-18T09:20:03;4.73;;;1.80;;
20454;SDS011;10386;54.314;10.022;2023-02-18T09:22:31;7.60;;;2.00;;
20454;SDS011;10386;54.314;10.022;2023-02-18T09:24:58;5.23;;;1.57;;
20454;SDS011;10386;54.314;10.022;2023-02-18T09:27:25;5.43;;;1.77;;
20454;SDS011;10386;54.314;10.022;2023-02-18T09:29:51;3.77;;;1.27;;
20454;SDS011;10386;54.314;10.022;2023-02-18T09:32:18;3.60;;;1.47;;
20454;SDS011;10386;54.314;10.022;2023-02-18T09:34:59;1.77;;;1.20;;
20454;SDS011;10386;54.314;10.022;2023-02-18T09:37:28;3.57;;;1.47;;
20454;SDS011;10386;54.314;10.022;2023-02-18T09:39:55;3.57;;;1.37;;
20454;SDS011;10386;54.314;10.022;2023-02-18T09:42:23;1.73;;;1.17;;
20454;SDS011;10386;54.314;10.022;2023-02-18T09:45:00;1.03;;;1.03;;
20454;SDS011;10386;54.314;10.022;2023-02-18T09:47:39;1.73;;;0.93;;
20454;SDS011;10386;54.314;10.022;2023-02-18T09:50:29;1.20;;;1.10;;
20454;SDS011;10386;54.314;10.022;2023-02-18T09:52:58;2.93;;;1.17;;
20454;SDS011;10386;54.314;10.022;2023-02-18T09:55:34;1.80;;;1.07;;
20454;SDS011;10386;54.314;10.022;2023-02-18T09:58:11;1.20;;;1.10;;
20454;SDS011;10386;54.314;10.022;2023-02-18T10:00:42;3.30;;;1.33;;
20454;SDS011;10386;54.314;10.022;2023-02-18T10:08:21;1.43;;;1.30;;
20454;SDS011;10386;54.314;10.022;2023-02-18T10:10:51;1.07;;;1.07;;
20454;SDS011;10386;54.314;10.022;2023-02-18T10:13:19;1.70;;;1.30;;
20454;SDS011;10386;54.314;10.022;2023-02-18T10:15:49;3.63;;;1.40;;
20454;SDS011;10386;54.314;10.022;2023-02-18T10:21:14;3.33;;;1.30;;
20454;SDS011;10386;54.314;10.022;2023-02-18T10:23:43;1.63;;;1.20;;
20454;SDS011;10386;54.314;10.022;2023-02-18T10:26:18;1.37;;;1.27;;
20454;SDS011;10386;54.314;10.022;2023-02-18T10:28:46;4.87;;;1.27;;
20454;SDS011;10386;54.314;10.022;2023-02-18T10:31:14;1.37;;;1.10;;
20454;SDS011;10386;54.314;10.022;2023-02-18T10:33:52;3.03;;;2.07;;
20454;SDS011;10386;54.314;10.022;2023-02-18T10:39:12;1.00;;;1.00;;
20454;SDS011;10386;54.314;10.022;2023-02-18T10:52:27;6.97;;;2.93;;
20454;SDS011;10386;54.314;10.022;2023-02-18T10:54:59;2.33;;;1.40;;
20454;SDS011;10386;54.314;10.022;2023-02-18T10:57:32;1.63;;;1.20;;
20454;SDS011;10386;54.314;10.022;2023-02-18T11:02:37;3.00;;;1.43;;
20454;SDS011;10386;54.314;10.022;2023-02-18T11:05:11;2.53;;;1.57;;
20454;SDS011;10386;54.314;10.022;2023-02-18T11:07:46;1.90;;;1.30;;
20454;SDS011;10386;54.314;10.022;2023-02-18T11:10:16;2.00;;;1.00;;
20454;SDS011;10386;54.314;10.022;2023-02-18T11:12:48;0.70;;;0.70;;
20454;SDS011;10386;54.314;10.022;2023-02-18T11:17:45;0.83;;;0.83;;
20454;SDS011;10386;54.314;10.022;2023-02-18T11:22:50;1.33;;;1.07;;
20454;SDS011;10386;54.314;10.022;2023-02-18T11:25:21;1.90;;;1.40;;
20454;SDS011;10386;54.314;10.022;2023-02-18T11:27:56;1.50;;;1.40;;
20454;SDS011;10386;54.314;10.022;2023-02-18T11:30:35;0.90;;;0.90;;
20454;SDS011;10386;54.314;10.022;2023-02-18T11:33:06;2.37;;;1.40;;
20454;SDS011;10386;54.314;10.022;2023-02-18T11:35:34;2.67;;;1.20;;
20454;SDS011;10386;54.314;10.022;2023-02-18T11:38:02;2.10;;;0.90;;
20454;SDS011;10386;54.314;10.022;2023-02-18T11:40:40;1.57;;;1.00;;
20454;SDS011;10386;54.314;10.022;2023-02-18T11:43:11;1.43;;;1.10;;
20454;SDS011;10386;54.314;10.022;2023-02-18T11:45:41;1.60;;;1.50;;
20454;SDS011;10386;54.314;10.022;2023-02-18T11:48:15;1.30;;;1.10;;
20454;SDS011;10386;54.314;10.022;2023-02-18T11:50:44;1.13;;;1.10;;
20454;SDS011;10386;54.314;10.022;2023-02-18T11:53:26;4.53;;;1.53;;
20454;SDS011;10386;54.314;10.022;2023-02-18T11:55:56;1.50;;;1.10;;
20454;SDS011;10386;54.314;10.022;2023-02-18T11:58:25;0.87;;;0.87;;
20454;SDS011;10386;54.314;10.022;2023-02-18T12:00:54;1.40;;;0.80;;
20454;SDS011;10386;54.314;10.022;2023-02-18T12:06:02;1.70;;;1.40;;
20454;SDS011;10386;54.314;10.022;2023-02-18T12:09:00;2.73;;;1.50;;
20454;SDS011;10386;54.314;10.022;2023-02-18T12:11:32;0.93;;;0.93;;
20454;SDS011;10386;54.314;10.022;2023-02-18T12:14:07;1.33;;;1.23;;
20454;SDS011;10386;54.314;10.022;2023-02-18T12:27:40;1.27;;;0.93;;
20454;SDS011;10386;54.314;10.022;2023-02-18T12:36:09;1.60;;;0.83;;
20454;SDS011;10386;54.314;10.022;2023-02-18T12:46:42;1.00;;;0.90;;
20454;SDS011;10386;54.314;10.022;2023-02-18T12:49:35;2.33;;;1.10;;
20454;SDS011;10386;54.314;10.022;2023-02-18T12:54:50;1.10;;;0.83;;
20454;SDS011;10386;54.314;10.022;2023-02-18T13:11:53;0.87;;;0.83;;
20454;SDS011;10386;54.314;10.022;2023-02-18T13:14:41;1.70;;;0.80;;
20454;SDS011;10386;54.314;10.022;2023-02-18T13:17:15;0.90;;;0.90;;
20454;SDS011;10386;54.314;10.022;2023-02-18T13:22:17;0.90;;;0.90;;
20454;SDS011;10386;54.314;10.022;2023-02-18T13:24:47;5.23;;;0.73;;
20454;SDS011;10386;54.314;10.022;2023-02-18T13:35:45;1.10;;;0.70;;
20454;SDS011;10386;54.314;10.022;2023-02-18T13:41:19;0.70;;;0.70;;
20454;SDS011;10386;54.314;10.022;2023-02-18T13:43:48;0.90;;;0.90;;
20454;SDS011;10386;54.314;10.022;2023-02-18T13:46:16;0.53;;;0.53;;
20454;SDS011;10386;54.314;10.022;2023-02-18T13:48:49;1.27;;;0.90;;
20454;SDS011;10386;54.314;10.022;2023-02-18T13:54:22;1.17;;;0.90;;
20454;SDS011;10386;54.314;10.022;2023-02-18T13:59:34;1.27;;;1.00;;
20454;SDS011;10386;54.314;10.022;2023-02-18T14:04:51;0.90;;;0.90;;
20454;SDS011;10386;54.314;10.022;2023-02-18T14:07:25;0.93;;;0.90;;
20454;SDS011;10386;54.314;10.022;2023-02-18T14:09:59;1.30;;;1.20;;
20454;SDS011;10386;54.314;10.022;2023-02-18T14:23:54;2.27;;;1.37;;
20454;SDS011;10386;54.314;10.022;2023-02-18T14:26:08;1.00;;;1.00;;
20454;SDS011;10386;54.314;10.022;2023-02-18T14:51:30;1.40;;;1.30;;
20454;SDS011;10386;54.314;10.022;2023-02-18T14:54:06;3.40;;;1.60;;
20454;SDS011;10386;54.314;10.022;2023-02-18T14:56:46;1.87;;;1.60;;
20454;SDS011;10386;54.314;10.022;2023-02-18T14:59:16;1.10;;;1.10;;
20454;SDS011;10386;54.314;10.022;2023-02-18T15:01:45;1.30;;;1.20;;
20454;SDS011;10386;54.314;10.022;2023-02-18T15:04:13;1.23;;;1.00;;
20454;SDS011;10386;54.314;10.022;2023-02-18T15:06:41;1.10;;;1.10;;
20454;SDS011;10386;54.314;10.022;2023-02-18T15:09:12;1.60;;;1.50;;
20454;SDS011;10386;54.314;10.022;2023-02-18T15:11:44;2.40;;;2.20;;
20454;SDS011;10386;54.314;10.022;2023-02-18T15:14:17;1.57;;;1.43;;
20454;SDS011;10386;54.314;10.022;2023-02-18T15:16:47;1.73;;;1.30;;
20454;SDS011;10386;54.314;10.022;2023-02-18T15:19:15;2.20;;;1.53;;
20454;SDS011;10386;54.314;10.022;2023-02-18T15:21:45;1.03;;;1.03;;
20454;SDS011;10386;54.314;10.022;2023-02-18T15:26:51;1.60;;;1.50;;
20454;SDS011;10386;54.314;10.022;2023-02-18T15:29:22;1.37;;;1.30;;
20454;SDS011;10386;54.314;10.022;2023-02-18T15:31:50;1.20;;;1.20;;
20454;SDS011;10386;54.314;10.022;2023-02-18T15:34:35;2.17;;;1.20;;
20454;SDS011;10386;54.314;10.022;2023-02-18T15:37:04;1.20;;;1.20;;
20454;SDS011;10386;54.314;10.022;2023-02-18T15:39:33;1.47;;;1.37;;
20454;SDS011;10386;54.314;10.022;2023-02-18T15:42:08;2.63;;;1.80;;
20454;SDS011;10386;54.314;10.022;2023-02-18T15:44:49;4.87;;;3.57;;
20454;SDS011;10386;54.314;10.022;2023-02-18T15:47:20;4.13;;;3.00;;
20454;SDS011;10386;54.314;10.022;2023-02-18T15:49:49;3.17;;;2.60;;
20454;SDS011;10386;54.314;10.022;2023-02-18T15:52:26;3.93;;;1.83;;
20454;SDS011;10386;54.314;10.022;2023-02-18T15:54:59;2.70;;;1.90;;
20454;SDS011;10386;54.314;10.022;2023-02-18T15:57:29;2.57;;;2.37;;
20454;SDS011;10386;54.314;10.022;2023-02-18T15:59:59;3.13;;;2.73;;
20454;SDS011;10386;54.314;10.022;2023-02-18T16:02:31;2.40;;;2.23;;
20454;SDS011;10386;54.314;10.022;2023-02-18T16:04:59;2.90;;;2.20;;
20454;SDS011;10386;54.314;10.022;2023-02-18T16:07:31;3.07;;;2.87;;
20454;SDS011;10386;54.314;10.022;2023-02-18T16:10:19;3.27;;;2.40;;
20454;SDS011;10386;54.314;10.022;2023-02-18T16:12:53;4.73;;;3.67;;
20454;SDS011;10386;54.314;10.022;2023-02-18T16:15:26;2.93;;;2.73;;
20454;SDS011;10386;54.314;10.022;2023-02-18T16:17:55;3.10;;;2.80;;
20454;SDS011;10386;54.314;10.022;2023-02-18T16:20:31;4.40;;;2.73;;
20454;SDS011;10386;54.314;10.022;2023-02-18T16:23:13;2.80;;;2.50;;
20454;SDS011;10386;54.314;10.022;2023-02-18T16:25:44;3.10;;;2.80;;
20454;SDS011;10386;54.314;10.022;2023-02-18T16:28:24;4.20;;;2.80;;
20454;SDS011;10386;54.314;10.022;2023-02-18T16:30:56;2.90;;;2.70;;
20454;SDS011;10386;54.314;10.022;2023-02-18T16:33:24;4.50;;;3.00;;
20454;SDS011;10386;54.314;10.022;2023-02-18T16:35:51;5.63;;;3.10;;
20454;SDS011;10386;54.314;10.022;2023-02-18T16:38:21;4.77;;;2.70;;
20454;SDS011;10386;54.314;10.022;2023-02-18T16:40:49;3.43;;;2.67;;
20454;SDS011;10386;54.314;10.022;2023-02-18T16:43:19;3.40;;;2.70;;
20454;SDS011;10386;54.314;10.022;2023-02-18T16:45:53;2.33;;;2.20;;
20454;SDS011;10386;54.314;10.022;2023-02-18T16:48:33;2.13;;;2.03;;
20454;SDS011;10386;54.314;10.022;2023-02-18T16:51:03;2.37;;;2.17;;
20454;SDS011;10386;54.314;10.022;2023-02-18T16:53:34;2.40;;;2.20;;
20454;SDS011;10386;54.314;10.022;2023-02-18T16:56:01;3.70;;;2.30;;
20454;SDS011;10386;54.314;10.022;2023-02-18T16:58:28;2.30;;;2.10;;
20454;SDS011;10386;54.314;10.022;2023-02-18T17:00:55;2.47;;;2.27;;
20454;SDS011;10386;54.314;10.022;2023-02-18T17:03:22;2.20;;;2.00;;
20454;SDS011;10386;54.314;10.022;2023-02-18T17:05:49;2.00;;;1.90;;
20454;SDS011;10386;54.314;10.022;2023-02-18T17:08:20;2.40;;;2.20;;
20454;SDS011;10386;54.314;10.022;2023-02-18T17:10:54;3.10;;;2.30;;
20454;SDS011;10386;54.314;10.022;2023-02-18T17:13:23;3.13;;;2.40;;
20454;SDS011;10386;54.314;10.022;2023-02-18T17:15:53;2.63;;;2.30;;
20454;SDS011;10386;54.314;10.022;2023-02-18T17:18:21;3.03;;;2.70;;
20454;SDS011;10386;54.314;10.022;2023-02-18T17:20:50;3.73;;;2.63;;
20454;SDS011;10386;54.314;10.022;2023-02-18T17:23:19;2.57;;;2.37;;
20454;SDS011;10386;54.314;10.022;2023-02-18T17:25:49;4.50;;;3.00;;
20454;SDS011;10386;54.314;10.022;2023-02-18T17:28:17;2.80;;;2.30;;
20454;SDS011;10386;54.314;10.022;2023-02-18T17:30:45;2.10;;;2.00;;
20454;SDS011;10386;54.314;10.022;2023-02-18T17:33:15;2.73;;;2.40;;
20454;SDS011;10386;54.314;10.022;2023-02-18T17:35:44;17.20;;;6.00;;
20454;SDS011;10386;54.314;10.022;2023-02-18T17:38:12;17.23;;;8.13;;
20454;SDS011;10386;54.314;10.022;2023-02-18T17:40:39;3.27;;;2.97;;
20454;SDS011;10386;54.314;10.022;2023-02-18T17:43:11;12.30;;;8.27;;
20454;SDS011;10386;54.314;10.022;2023-02-18T17:45:40;4.83;;;3.87;;